Time;durP1;ratioP1;P1;durP2;ratioP2;P2;SDS_P1;SDS_P2;PMS_P1;PMS_P2;Temp;Humidity;BMP_temperature;BMP_pressure;BME280_temperature;BME280_humidity;BME280_pressure;Samples;Min_cycle;Max_cycle;Signal;HPM_P1;HPM_P2
2022/10/05 00:00:16;;;;;;;19.70;10.88;;;;;;;-145.01;100.00;64805.59;4956844;28;20035;-56
2022/10/05 00:02:41;;;;;;;23.33;10.80;;;;;;;-145.01;100.00;64805.59;4964899;28;20086;-55
2022/10/05 00:05:30;;;;;;;19.70;11.35;;;;;;;;;;5068157;27;1629600;-56
2022/10/05 00:07:56;;;;;;;23.52;11.70;;;;;;;;;;5110582;28;20036;-57
2022/10/05 00:10:21;;;;;;;21.95;11.02;;;;;;;;;;5112500;27;20020;-56
2022/10/05 00:12:47;;;;;;;18.13;9.93;;;;;;;;;;5108545;28;20020;-56
2022/10/05 00:15:13;;;;;;;19.80;11.27;;;;;;;;;;5113996;28;20019;-57
2022/10/05 00:17:38;;;;;;;23.23;11.38;;;;;;;;;;5103996;28;20031;-58
2022/10/05 00:20:20;;;;;;;18.90;9.93;;;;;;;;;;5112336;28;20068;-57
2022/10/05 00:22:45;;;;;;;23.83;10.40;;;;;;;;;;5109233;28;20036;-56
2022/10/05 00:25:15;;;;;;;22.50;10.98;;;;;;;;;;5110761;28;20031;-56
2022/10/05 00:27:40;;;;;;;23.87;11.50;;;;;;;;;;5111736;27;20115;-57
2022/10/05 00:30:13;;;;;;;18.65;11.05;;;;;;;;;;5111761;28;20103;-56
2022/10/05 00:32:38;;;;;;;23.38;11.25;;;;;;;;;;5117596;28;20069;-57
2022/10/05 00:35:04;;;;;;;23.48;11.45;;;;;;;;;;5117731;28;20020;-57
2022/10/05 00:37:29;;;;;;;23.25;11.27;;;;;;;;;;5109914;28;20028;-57
2022/10/05 00:39:54;;;;;;;23.20;10.93;;;;;;;;;;5101287;28;20163;-58
2022/10/05 00:42:38;;;;;;;19.15;10.93;;;;;;;;;;5107157;27;20098;-57
2022/10/05 00:45:11;;;;;;;20.52;11.82;;;;;;;;;;5106739;28;20774;-58
2022/10/05 00:47:55;;;;;;;21.27;10.45;;;;;;;;;;5112787;28;20019;-56
2022/10/05 00:50:24;;;;;;;26.83;11.18;;;;;;;;;;5110058;28;20517;-55
2022/10/05 00:52:58;;;;;;;20.35;10.88;;;;;;;;;;5105252;28;20161;-56
2022/10/05 00:55:35;;;;;;;24.38;11.27;;;;;;;;;;5105144;28;20100;-56
2022/10/05 00:58:19;;;;;;;18.80;11.23;;;;;;;;;;5110170;28;20108;-56
2022/10/05 01:00:48;;;;;;;24.30;12.75;;;;;;;;;;5107949;28;20022;-56
2022/10/05 01:03:16;;;;;;;23.88;11.98;;;;;;;;;;5106535;28;20036;-56
2022/10/05 01:05:50;;;;;;;25.17;12.48;;;;;;;;;;5106840;28;20183;-56
2022/10/05 01:08:18;;;;;;;23.40;11.13;;;;;;;;;;5107506;28;20488;-54
2022/10/05 01:10:49;;;;;;;28.13;11.63;;;;;;;;;;5111084;28;20026;-58
2022/10/05 01:13:24;;;;;;;21.30;12.13;;;;;;;;;;5091516;28;20023;-57
2022/10/05 01:15:49;;;;;;;18.52;11.40;;;;;;;;;;5093621;28;20028;-58
2022/10/05 01:18:15;;;;;;;20.80;10.90;;;;;;;;;;5098468;28;20042;-57
2022/10/05 01:20:45;;;;;;;20.60;10.82;;;;;;;;;;5095925;28;20099;-57
2022/10/05 01:23:14;;;;;;;17.85;11.05;;;;;;;;;;5093849;28;20023;-57
2022/10/05 01:25:45;;;;;;;19.35;10.93;;;;;;;;;;5091207;28;20034;-57
2022/10/05 01:28:12;;;;;;;25.63;12.18;;;;;;;;;;5107135;28;20030;-56
2022/10/05 01:30:59;;;;;;;19.13;11.68;;;;;;;;;;5094615;28;20492;-57
2022/10/05 01:33:25;;;;;;;22.75;12.10;;;;;;;;;;5090080;28;20457;-56
2022/10/05 01:35:53;;;;;;;21.80;11.65;;;;;;;;;;5092893;28;20008;-57
2022/10/05 01:38:37;;;;;;;22.83;12.55;;;;;;;;;;5094715;28;20476;-56
2022/10/05 01:41:02;;;;;;;24.80;13.18;;;;;;;;;;5094634;28;20024;-54
2022/10/05 01:43:53;;;;;;;19.30;10.95;;;;;;;;;;5091987;28;20042;-55
2022/10/05 01:46:23;;;;;;;19.90;11.38;;;;;;;;;;5071399;28;20028;-55
2022/10/05 01:49:07;;;;;;;22.10;10.90;;;;;;;;;;5094228;28;20050;-57
2022/10/05 01:51:41;;;;;;;21.60;11.32;;;;;;;;;;5092926;28;20020;-56
2022/10/05 01:54:15;;;;;;;19.67;10.75;;;;;;;;;;5091577;28;20028;-57
2022/10/05 01:57:01;;;;;;;18.25;11.00;;;;;;;;;;5091894;28;20020;-57
2022/10/05 01:59:35;;;;;;;21.58;10.80;;;;;;;;;;5064080;28;20437;-55
2022/10/05 02:02:02;;;;;;;25.83;11.50;;;;;;;;;;5092664;28;20030;-55
2022/10/05 02:04:42;;;;;;;25.02;11.15;;;;;;;;;;5093283;28;20432;-55
2022/10/05 02:07:09;;;;;;;18.80;10.80;;;;;;;;;;5097032;28;20024;-55
2022/10/05 02:09:36;;;;;;;19.98;10.88;;;;;;;;;;5099342;28;20020;-54
2022/10/05 02:12:04;;;;;;;17.38;10.05;;;;;;;;;;5095273;28;20047;-55
2022/10/05 02:14:37;;;;;;;21.00;10.95;;;;;;;;;;5095300;28;20058;-56
2022/10/05 02:17:04;;;;;;;20.95;10.40;;;;;;;;;;5094864;28;20072;-55
2022/10/05 02:19:35;;;;;;;18.08;10.30;;;;;;;;;;5098107;28;20556;-55
2022/10/05 02:22:02;;;;;;;19.25;11.10;;;;;;;;;;5094244;28;20428;-55
2022/10/05 02:24:28;;;;;;;21.25;11.57;;;;;;;;;;5097635;28;20462;-57
2022/10/05 02:26:53;;;;;;;25.10;13.23;;;;;;;;;;5090794;28;20382;-55
2022/10/05 02:29:19;;;;;;;31.35;14.30;;;;;;;;;;5092632;28;20036;-55
2022/10/05 02:31:44;;;;;;;33.60;15.20;;;;;;;;;;5088414;28;20029;-56
2022/10/05 02:34:22;;;;;;;29.35;13.73;;;;;;;;;;5095984;28;20069;-55
2022/10/05 02:36:48;;;;;;;32.28;14.23;;;;;;;;;;5094498;28;20028;-54
2022/10/05 02:39:16;;;;;;;26.50;12.80;;;;;;;;;;5088057;28;20030;-55
2022/10/05 02:41:45;;;;;;;32.05;14.75;;;;;;;;;;5086416;28;20035;-55
2022/10/05 02:44:14;;;;;;;32.80;15.15;;;;;;;;;;5104225;28;20091;-55
2022/10/05 02:46:42;;;;;;;35.30;15.32;;;;;;;;;;5091432;28;20016;-58
2022/10/05 02:49:23;;;;;;;28.05;14.02;;;;;;;;;;5093133;28;20027;-56
2022/10/05 02:51:56;;;;;;;32.63;14.05;;;;;;;;;;5087503;28;20103;-56
2022/10/05 02:54:25;;;;;;;32.65;14.13;;;;;;;;;;5087434;28;20084;-55
2022/10/05 02:56:59;;;;;;;25.60;13.70;;;;;;;;;;5098900;28;20015;-55
2022/10/05 02:59:30;;;;;;;38.97;16.65;;;;;;;;;;5095688;28;20058;-55
2022/10/05 03:02:24;;;;;;;29.30;13.07;;;;;;;;;;5077810;28;20102;-55
2022/10/05 03:04:54;;;;;;;28.45;13.98;;;;;;;;;;5073944;28;20036;-56
2022/10/05 03:07:25;;;;;;;30.85;15.25;;;;;;;;;;5097137;28;20111;-55
2022/10/05 03:09:53;;;;;;;34.50;14.98;;;;;;;;;;5085167;28;20012;-56
2022/10/05 03:12:27;;;;;;;34.75;16.85;;;;;;;;;;5092928;28;20020;-55
2022/10/05 03:15:02;;;;;;;32.13;15.10;;;;;;;;;;5092381;28;20027;-56
2022/10/05 03:17:29;;;;;;;42.20;16.73;;;;;;;;;;5089730;28;20020;-56
2022/10/05 03:20:01;;;;;;;37.08;18.02;;;;;;;;;;5088631;28;20048;-55
2022/10/05 03:22:35;;;;;;;35.55;17.90;;;;;;;;;;5090388;28;20476;-55
2022/10/05 03:25:23;;;;;;;25.50;12.82;;;;;;;;;;5089706;28;20032;-56
2022/10/05 03:28:18;;;;;;;36.05;18.00;;;;;;;;;;5092450;28;20020;-55
2022/10/05 03:30:46;;;;;;;32.20;16.77;;;;;;;;;;5080257;28;20036;-57
2022/10/05 03:33:11;;;;;;;35.33;18.52;;;;;;;;;;5089874;28;20015;-56
2022/10/05 03:35:45;;;;;;;41.63;17.80;;;;;;;;;;5094364;28;20039;-56
2022/10/05 03:38:39;;;;;;;45.83;18.30;;;;;;;;;;5096191;28;20449;-56
2022/10/05 03:41:08;;;;;;;42.63;18.50;;;;;;;;;;5081673;28;20032;-56
2022/10/05 03:43:41;;;;;;;34.58;18.08;;;;;;;;;;5093895;28;20077;-56
2022/10/05 03:46:06;;;;;;;38.88;19.40;;;;;;;;;;5088557;28;20054;-57
2022/10/05 03:48:32;;;;;;;47.65;21.15;;;;;;;;;;5086182;28;20363;-56
2022/10/05 03:51:11;;;;;;;53.30;22.10;;;;;;;;;;5079529;28;20413;-56
2022/10/05 03:53:40;;;;;;;52.58;22.58;;;;;;;;;;5091178;28;20027;-56
2022/10/05 03:56:16;;;;;;;46.53;20.48;;;;;;;;;;5079782;28;20912;-57
2022/10/05 03:59:05;;;;;;;55.97;22.20;;;;;;;;;;5082280;28;20031;-56
2022/10/05 04:01:46;;;;;;;56.08;23.35;;;;;;;;;;5073444;28;20082;-57
2022/10/05 04:04:12;;;;;;;54.65;23.67;;;;;;;;;;5073564;28;20117;-57
2022/10/05 04:06:41;;;;;;;55.47;23.35;;;;;;;;;;5085072;28;20020;-56
2022/10/05 04:09:10;;;;;;;61.45;26.73;;;;;;;;;;5078453;28;20036;-56
2022/10/05 04:11:39;;;;;;;58.35;24.95;;;;;;;;;;5075344;28;20467;-57
2022/10/05 04:14:33;;;;;;;55.92;24.52;;;;;;;;;;5077390;28;20031;-56
2022/10/05 04:17:04;;;;;;;62.95;24.70;;;;;;;;;;5066000;28;20028;-55
2022/10/05 04:19:31;;;;;;;59.30;24.60;;;;;;;;;;5077430;28;20370;-56
2022/10/05 04:21:56;;;;;;;54.15;23.83;;;;;;;;;;5081615;28;20021;-57
2022/10/05 04:24:23;;;;;;;55.15;22.90;;;;;;;;;;5079523;28;20463;-57
2022/10/05 04:26:56;;;;;;;55.15;22.92;;;;;;;;;;5079008;28;20111;-56
2022/10/05 04:29:21;;;;;;;43.33;19.92;;;;;;;;;;5077324;28;20024;-56
2022/10/05 04:31:50;;;;;;;44.78;20.42;;;;;;;;;;5080188;28;20361;-56
2022/10/05 04:34:35;;;;;;;53.22;22.65;;;;;;;;;;5072518;28;20031;-57
2022/10/05 04:37:02;;;;;;;55.33;23.38;;;;;;;;;;5080133;28;20100;-56
2022/10/05 04:39:40;;;;;;;51.80;22.55;;;;;;;;;;5084670;28;20027;-58
2022/10/05 04:42:07;;;;;;;48.83;21.27;;;;;;;;;;5080053;28;20487;-56
2022/10/05 04:44:51;;;;;;;51.28;22.67;;;;;;;;;;5079240;28;20484;-56
2022/10/05 04:47:22;;;;;;;53.78;22.40;;;;;;;;;;5079111;28;20023;-56
2022/10/05 04:49:57;;;;;;;48.22;22.52;;;;;;;;;;5080616;28;20037;-56
2022/10/05 04:52:30;;;;;;;53.75;23.33;;;;;;;;;;5082507;28;20063;-57
2022/10/05 04:54:58;;;;;;;45.17;21.15;;;;;;;;;;5085818;28;20028;-57
2022/10/05 04:57:26;;;;;;;50.28;22.20;;;;;;;;;;5083476;28;20161;-56
2022/10/05 04:59:57;;;;;;;48.78;22.17;;;;;;;;;;5085224;28;20031;-56
2022/10/05 05:02:30;;;;;;;37.95;19.00;;;;;;;;;;5093867;28;20100;-56
2022/10/05 05:05:05;;;;;;;44.10;20.02;;;;;;;;;;5085020;28;20090;-56
2022/10/05 05:07:30;;;;;;;42.92;22.20;;;;;;;;;;5090400;28;20016;-57
2022/10/05 05:09:58;;;;;;;41.25;21.50;;;;;;;;;;5090751;28;20032;-56
2022/10/05 05:12:42;;;;;;;45.75;21.63;;;;;;;;;;5085014;28;20107;-57
2022/10/05 05:15:13;;;;;;;49.70;22.30;;;;;;;;;;5094957;28;20056;-56
2022/10/05 05:18:02;;;;;;;46.17;21.98;;;;;;;;;;5088754;28;20015;-57
2022/10/05 05:20:42;;;;;;;46.67;23.08;;;;;;;;;;5053221;28;20194;-57
2022/10/05 05:23:16;;;;;;;45.30;21.13;;;;;;;;;;5088734;28;20052;-56
2022/10/05 05:25:47;;;;;;;43.33;21.13;;;;;;;;;;5095898;28;20034;-57
2022/10/05 05:28:31;;;;;;;48.67;22.08;;;;;;;;;;5077535;28;20012;-56
2022/10/05 05:31:05;;;;;;;39.80;20.50;;;;;;;;;;5095258;28;20149;-56
2022/10/05 05:33:37;;;;;;;43.35;20.83;;;;;;;;;;5087110;28;20817;-55
2022/10/05 05:36:11;;;;;;;45.38;23.25;;;;;;;;;;5088123;28;20050;-54
2022/10/05 05:38:52;;;;;;;42.88;21.27;;;;;;;;;;5088496;28;20020;-56
2022/10/05 05:41:21;;;;;;;40.80;21.25;;;;;;;;;;5087334;28;20072;-55
2022/10/05 05:44:10;;;;;;;46.60;24.63;;;;;;;;;;5082270;28;20082;-55
2022/10/05 05:46:36;;;;;;;36.50;19.00;;;;;;;;;;5087196;28;20028;-56
2022/10/05 05:49:21;;;;;;;38.85;20.40;;;;;;;;;;5089678;28;20020;-55
2022/10/05 05:52:00;;;;;;;39.25;19.17;;;;;;;;;;5080691;28;20070;-56
2022/10/05 05:54:25;;;;;;;50.90;19.35;;;;;;;;;;5078604;28;20200;-56
2022/10/05 05:57:07;;;;;;;38.15;19.70;;;;;;;;;;5089129;28;20017;-56
2022/10/05 05:59:54;;;;;;;33.10;18.15;;;;;;;;;;5084968;28;20015;-56
2022/10/05 06:02:20;;;;;;;31.95;17.40;;;;;;;;;;5085846;28;20023;-56
2022/10/05 06:04:50;;;;;;;33.88;17.45;;;;;;;;;;5083799;28;20046;-55
2022/10/05 06:07:17;;;;;;;27.55;15.95;;;;;;;;;;5084306;28;20034;-56
2022/10/05 06:09:42;;;;;;;34.55;16.05;;;;;;;;;;5095016;28;20357;-57
2022/10/05 06:12:09;;;;;;;28.08;15.30;;;;;;;;;;5095902;28;20107;-56
2022/10/05 06:14:36;;;;;;;29.33;15.50;;;;;;;;;;5089364;28;20024;-56
2022/10/05 06:17:27;;;;;;;27.25;14.88;;;;;;;;;;5093555;28;20147;-56
2022/10/05 06:19:53;;;;;;;26.48;14.73;;;;;;;;;;5082084;28;20078;-56
2022/10/05 06:22:25;;;;;;;27.83;14.82;;;;;;;;;;5090743;28;20309;-56
2022/10/05 06:25:02;;;;;;;27.50;13.82;;;;;;;;;;5089359;28;20058;-58
2022/10/05 06:27:39;;;;;;;22.75;13.88;;;;;;;;;;5093268;28;20411;-56
2022/10/05 06:30:14;;;;;;;22.45;13.60;;;;;;;;;;5089427;28;20101;-55
2022/10/05 06:32:45;;;;;;;27.75;14.35;;;;;;;;;;5093908;28;20023;-56
2022/10/05 06:35:33;;;;;;;29.13;13.88;;;;;;;;;;5090197;28;20041;-56
2022/10/05 06:38:16;;;;;;;23.55;12.43;;;;;;;;;;5066441;28;20025;-57
2022/10/05 06:40:56;;;;;;;22.02;12.02;;;;;;;;;;5088661;28;20024;-57
2022/10/05 06:43:33;;;;;;;19.75;12.00;;;;;;;;;;5083430;28;20050;-56
2022/10/05 06:46:02;;;;;;;20.35;10.82;;;;;;;;;;5088613;28;20428;-56
2022/10/05 06:48:34;;;;;;;19.48;11.35;;;;;;;;;;5080828;28;20020;-56
2022/10/05 06:51:03;;;;;;;18.58;10.55;;;;;;;;;;5085981;28;20498;-56
2022/10/05 06:54:02;;;;;;;20.10;10.60;;;;;;;;;;5094892;28;20400;-57
2022/10/05 06:56:42;;;;;;;20.03;9.90;;;;;;;;;;5046858;28;20034;-55
2022/10/05 06:59:10;;;;;;;20.02;10.13;;;;;;;;;;5096995;28;20822;-56
2022/10/05 07:01:42;;;;;;;21.60;11.60;;;;;;;;;;5085867;28;20461;-55
2022/10/05 07:04:07;;;;;;;21.95;10.93;;;;;;;;;;5085749;28;20071;-55
2022/10/05 07:06:34;;;;;;;19.45;11.65;;;;;;;;;;5073752;28;20607;-54
2022/10/05 07:09:18;;;;;;;20.98;11.85;;;;;;;;;;5080212;28;20020;-55
2022/10/05 07:11:49;;;;;;;18.73;11.10;;;;;;;;;;5080933;28;20027;-55
2022/10/05 07:14:33;;;;;;;22.02;11.35;;;;;;;;;;5090672;28;20024;-57
2022/10/05 07:16:58;;;;;;;16.08;9.50;;;;;;;;;;5081421;28;20028;-55
2022/10/05 07:19:26;;;;;;;16.33;11.20;;;;;;;;;;5085528;28;20020;-56
2022/10/05 07:22:14;;;;;;;18.65;11.93;;;;;;;;;;5085041;28;20020;-55
2022/10/05 07:24:56;;;;;;;21.92;11.43;;;;;;;;;;5078047;28;20020;-57
2022/10/05 07:27:22;;;;;;;22.83;12.48;;;;;;;;;;5078858;28;20109;-54
2022/10/05 07:29:51;;;;;;;17.00;11.15;;;;;;;;;;5082258;28;20823;-54
2022/10/05 07:32:32;;;;;;;24.27;12.00;;;;;;;;;;5081401;28;20079;-55
2022/10/05 07:34:59;;;;;;;21.40;10.60;;;;;;;;;;5079216;28;20020;-54
2022/10/05 07:40:19;;;;;;;18.30;10.27;;;;;;;;;;5094952;28;20136;-56
2022/10/05 07:42:51;;;;;;;21.35;10.63;;;;;;;;;;5085178;28;20032;-57
2022/10/05 07:45:19;;;;;;;16.85;9.18;;;;;;;;;;5084086;28;20549;-57
2022/10/05 07:47:54;;;;;;;17.63;9.27;;;;;;;;;;5084230;28;20020;-57
2022/10/05 07:50:22;;;;;;;17.75;9.70;;;;;;;;;;5083343;28;20051;-57
2022/10/05 07:52:49;;;;;;;13.57;8.10;;;;;;;;;;5071339;28;20386;-57
2022/10/05 07:55:20;;;;;;;18.50;10.80;;;;;;;;;;5081244;28;20481;-57
2022/10/05 07:58:05;;;;;;;15.82;9.65;;;;;;;;;;5083942;28;20489;-56
2022/10/05 08:00:42;;;;;;;14.32;8.63;;;;;;;;;;5086537;28;20138;-56
2022/10/05 08:03:12;;;;;;;14.30;9.05;;;;;;;;;;5083153;28;20029;-57
2022/10/05 08:05:39;;;;;;;13.00;8.93;;;;;;;;;;5085094;28;20027;-57
2022/10/05 08:08:14;;;;;;;14.18;8.85;;;;;;;;;;5081503;28;20027;-57
2022/10/05 08:10:43;;;;;;;14.35;8.93;;;;;;;;;;5087449;28;20424;-56
2022/10/05 08:13:08;;;;;;;12.48;8.15;;;;;;;;;;5081376;28;20020;-57
2022/10/05 08:15:35;;;;;;;14.40;7.57;;;;;;;;;;5093000;28;20432;-57
2022/10/05 08:18:08;;;;;;;14.00;8.02;;;;;;;;;;5089282;28;20409;-56
2022/10/05 08:20:52;;;;;;;14.25;7.53;;;;;;;;;;5090598;28;20047;-56
2022/10/05 08:23:24;;;;;;;12.88;7.22;;;;;;;;;;5084674;28;20027;-58
2022/10/05 08:25:53;;;;;;;13.82;7.07;;;;;;;;;;5083061;28;20016;-56
2022/10/05 08:28:21;;;;;;;11.40;6.82;;;;;;;;;;5086159;28;20046;-57
2022/10/05 08:31:10;;;;;;;11.38;6.82;;;;;;;;;;5082392;28;20307;-57
2022/10/05 08:33:49;;;;;;;12.05;7.40;;;;;;;;;;5074413;28;20036;-57
2022/10/05 08:36:14;;;;;;;14.02;6.93;;;;;;;;;;5087434;28;20085;-58
2022/10/05 08:38:39;;;;;;;9.27;6.35;;;;;;;;;;5090304;28;20482;-57
2022/10/05 08:41:05;;;;;;;8.30;6.00;;;;;;;;;;5092891;28;20557;-56
2022/10/05 08:43:39;;;;;;;9.60;5.78;;;;;;;;;;5095313;28;20648;-57
2022/10/05 08:46:10;;;;;;;10.93;6.57;;;;;;;;;;5093333;28;20104;-57
2022/10/05 08:48:55;;;;;;;10.60;5.80;;;;;;;;;;5096755;28;20021;-57
2022/10/05 08:51:23;;;;;;;10.82;5.85;;;;;;;;;;5089390;28;20284;-57
2022/10/05 08:54:07;;;;;;;9.07;5.57;;;;;;;;;;5092829;28;20067;-57
2022/10/05 08:56:52;;;;;;;10.60;5.68;;;;;;;;;;5087059;28;20027;-57
2022/10/05 08:59:17;;;;;;;10.48;5.90;;;;;;;;;;5086216;28;20527;-55
2022/10/05 09:01:46;;;;;;;9.48;4.90;;;;;;;;;;5097476;28;20051;-57
2022/10/05 09:04:29;;;;;;;10.60;5.75;;;;;;;;;;5092807;28;20155;-57
2022/10/05 09:07:13;;;;;;;7.97;5.25;;;;;;;;;;5089356;28;20020;-57
2022/10/05 09:09:58;;;;;;;12.05;5.15;;;;;;;;;;5089157;28;20025;-57
2022/10/05 09:12:43;;;;;;;7.80;4.70;;;;;;;;;;5085985;28;20032;-56
2022/10/05 09:15:23;;;;;;;9.20;4.65;;;;;;;;;;5091342;28;20051;-57
2022/10/05 09:17:48;;;;;;;13.93;5.35;;;;;;;;;;5093085;28;20020;-57
2022/10/05 09:20:17;;;;;;;9.45;5.32;;;;;;;;;;5092423;28;20023;-57
2022/10/05 09:23:01;;;;;;;8.68;5.13;;;;;;;;;;5094349;28;20034;-56
2022/10/05 09:25:45;;;;;;;9.98;5.10;;;;;;;;;;5089543;28;20031;-56
2022/10/05 09:28:22;;;;;;;8.10;4.97;;;;;;;;;;5093820;28;20024;-56
2022/10/05 09:30:57;;;;;;;7.40;5.18;;;;;;;;;;5090330;28;20027;-56
2022/10/05 09:33:24;;;;;;;9.30;4.63;;;;;;;;;;5087899;28;20026;-56
2022/10/05 09:36:08;;;;;;;7.85;5.00;;;;;;;;;;5086714;28;20024;-56
2022/10/05 09:38:49;;;;;;;6.85;4.85;;;;;;;;;;5084848;28;20095;-55
2022/10/05 09:41:33;;;;;;;7.22;4.72;;;;;;;;;;5087468;28;20378;-57
2022/10/05 09:44:28;;;;;;;7.13;4.45;;;;;;;;;;5088991;28;20544;-57
2022/10/05 09:46:59;;;;;;;8.23;4.82;;;;;;;;;;5015408;28;20488;-56
2022/10/05 09:49:39;;;;;;;8.02;4.05;;;;;;;;;;5088429;28;20035;-57
2022/10/05 09:52:05;;;;;;;;;;;;;;;;;;5092217;28;20024;-56
2022/10/05 09:54:40;;;;;;;6.25;3.75;;;;;;;;;;5090559;27;19907;-56
2022/10/05 09:57:23;;;;;;;12.95;4.57;;;;;;;;;;5083549;28;20024;-56
2022/10/05 10:00:07;;;;;;;7.90;4.18;;;;;;;;;;5086946;28;20020;-57
2022/10/05 10:02:51;;;;;;;6.53;4.05;;;;;;;;;;5083545;28;20016;-57
2022/10/05 10:05:20;;;;;;;6.45;3.65;;;;;;;;;;5084048;28;20056;-57
2022/10/05 10:07:45;;;;;;;5.30;3.35;;;;;;;;;;5094186;28;20019;-56
2022/10/05 10:10:32;;;;;;;6.45;3.50;;;;;;;;;;5081167;28;20024;-57
2022/10/05 10:13:03;;;;;;;6.97;3.65;;;;;;;;;;5090626;28;20104;-57
2022/10/05 10:15:31;;;;;;;5.88;3.65;;;;;;;;;;5088783;28;20039;-56
2022/10/05 10:18:02;;;;;;;6.30;3.83;;;;;;;;;;5085638;28;20062;-57
2022/10/05 10:20:33;;;;;;;6.45;3.97;;;;;;;;;;5089880;28;20484;-57
2022/10/05 10:23:16;;;;;;;5.38;3.45;;;;;;;;;;5091429;28;20489;-57
2022/10/05 10:25:53;;;;;;;5.85;3.55;;;;;;;;;;5081888;28;20476;-57
2022/10/05 10:28:28;;;;;;;5.80;3.78;;;;;;;;;;5082004;28;20028;-57
2022/10/05 10:31:02;;;;;;;6.97;3.50;;;;;;;;;;5088925;28;20437;-57
2022/10/05 10:33:33;;;;;;;5.32;3.38;;;;;;;;;;5091513;28;20076;-57
2022/10/05 10:36:18;;;;;;;5.22;3.20;;;;;;;;;;5097069;28;20024;-57
2022/10/05 10:39:01;;;;;;;4.95;3.00;;;;;;;;;;5087304;28;20024;-57
2022/10/05 10:41:47;;;;;;;6.03;3.00;;;;;;;;;;5086675;28;20027;-57
2022/10/05 10:44:31;;;;;;;4.43;2.92;;;;;;;;;;5078146;28;20032;-56
2022/10/05 10:47:15;;;;;;;4.72;2.58;;;;;;;;;;5082976;28;20051;-56
2022/10/05 10:49:40;;;;;;;3.88;2.70;;;;;;;;;;5077454;28;20023;-57
2022/10/05 10:52:08;;;;;;;4.45;2.90;;;;;;;;;;5096673;28;20028;-56
2022/10/05 10:54:40;;;;;;;6.45;2.90;;;;;;;;;;5088858;28;20009;-56
2022/10/05 10:57:09;;;;;;;7.97;2.50;;;;;;;;;;5091447;28;20473;-56
2022/10/05 10:59:46;;;;;;;4.88;2.70;;;;;;;;;;5088777;28;20544;-56
2022/10/05 11:02:20;;;;;;;7.22;2.72;;;;;;;;;;5090076;28;20543;-56
2022/10/05 11:05:04;;;;;;;5.25;2.67;;;;;;;;;;5078300;28;20056;-56
2022/10/05 11:07:35;;;;;;;3.90;2.80;;;;;;;;;;5089484;28;20727;-57
2022/10/05 11:10:00;;;;;;;7.72;2.80;;;;;;;;;;5091188;28;20382;-55
2022/10/05 11:12:28;;;;;;;7.30;2.65;;;;;;;;;;5087575;28;20024;-56
2022/10/05 11:15:03;;;;;;;12.60;3.20;;;;;;;;;;5084144;28;20019;-55
2022/10/05 11:17:30;;;;;;;6.32;3.15;;;;;;;;;;5086867;28;20023;-57
2022/10/05 11:20:14;;;;;;;4.90;3.30;;;;;;;;;;5091540;28;20031;-56
2022/10/05 11:22:58;;;;;;;11.48;3.47;;;;;;;;;;5087740;28;20020;-56
2022/10/05 11:25:23;;;;;;;5.43;3.53;;;;;;;;;;5085214;28;20508;-56
2022/10/05 11:28:08;;;;;;;5.75;3.95;;;;;;;;;;5088650;28;20024;-56
2022/10/05 11:30:53;;;;;;;5.97;3.72;;;;;;;;;;5086500;28;20636;-56
2022/10/05 11:33:37;;;;;;;5.90;3.05;;;;;;;;;;5080298;28;20020;-57
2022/10/05 11:36:02;;;;;;;11.00;3.25;;;;;;;;;;5094088;28;20483;-57
2022/10/05 11:38:35;;;;;;;5.65;3.80;;;;;;;;;;5087370;28;20580;-56
2022/10/05 11:41:40;;;;;;;8.18;4.25;;;;;;;;;;5083655;28;20469;-56
2022/10/05 11:44:26;;;;;;;12.30;4.38;;;;;;;;;;5041400;28;20513;-56
2022/10/05 11:47:03;;;;;;;6.35;3.50;;;;;;;;;;5026120;28;20051;-57
2022/10/05 11:49:55;;;;;;;8.18;3.97;;;;;;;;;;5074270;28;20031;-57
2022/10/05 11:52:40;;;;;;;7.70;4.40;;;;;;;;;;5076747;28;20040;-57
2022/10/05 11:55:21;;;;;;;9.55;3.95;;;;;;;;;;5087563;28;20035;-56
2022/10/05 11:57:53;;;;;;;7.93;4.28;;;;;;;;;;5094860;28;20036;-56
2022/10/05 12:00:20;;;;;;;7.65;4.35;;;;;;;;;;5086652;28;20544;-55
2022/10/05 12:02:45;;;;;;;4.88;3.50;;;;;;;;;;5092946;28;20458;-57
2022/10/05 12:05:15;;;;;;;5.60;3.67;;;;;;;;;;5092876;28;20048;-55
2022/10/05 12:07:43;;;;;;;9.68;3.85;;;;;;;;;;5090313;28;20015;-56
2022/10/05 12:10:27;;;;;;;7.95;4.38;;;;;;;;;;5081981;28;20451;-56
2022/10/05 12:12:56;;;;;;;6.82;4.13;;;;;;;;;;5091284;28;20465;-56
2022/10/05 12:15:22;;;;;;;5.82;3.58;;;;;;;;;;5098642;28;20343;-57
2022/10/05 12:17:50;;;;;;;8.27;3.92;;;;;;;;;;5087586;28;20023;-56
2022/10/05 12:20:17;;;;;;;6.70;3.75;;;;;;;;;;5086095;28;20424;-57
2022/10/05 12:22:48;;;;;;;6.65;3.90;;;;;;;;;;5078998;28;20046;-56
2022/10/05 12:25:13;;;;;;;9.80;3.78;;;;;;;;;;5092846;28;20020;-56
2022/10/05 12:27:39;;;;;;;7.00;4.00;;;;;;;;;;5085227;28;20366;-57
2022/10/05 12:30:26;;;;;;;7.03;3.78;;;;;;;;;;5082010;28;20118;-56
2022/10/05 12:32:54;;;;;;;6.65;3.78;;;;;;;;;;5088630;28;20012;-56
2022/10/05 12:35:21;;;;;;;6.03;3.70;;;;;;;;;;5092850;28;20152;-55
2022/10/05 12:37:54;;;;;;;8.05;3.78;;;;;;;;;;5087456;28;20093;-57
2022/10/05 12:40:22;;;;;;;6.00;3.40;;;;;;;;;;5085473;28;20011;-55
2022/10/05 12:42:53;;;;;;;5.55;3.60;;;;;;;;;;5086800;28;20028;-56
2022/10/05 12:45:19;;;;;;;6.95;3.88;;;;;;;;;;5086070;28;20027;-55
2022/10/05 12:47:53;;;;;;;5.97;4.15;;;;;;;;;;5083252;28;20020;-56
2022/10/05 12:50:28;;;;;;;7.22;4.43;;;;;;;;;;5078062;28;20043;-55
2022/10/05 12:53:12;;;;;;;6.00;3.80;;;;;;;;;;5082019;28;20077;-55
2022/10/05 12:55:37;;;;;;;7.05;4.47;;;;;;;;;;5086210;28;20047;-56
2022/10/05 12:58:05;;;;;;;6.22;3.90;;;;;;;;;;5089572;28;20117;-60
2022/10/05 13:00:31;;;;;;;6.65;4.38;;;;;;;;;;5084109;28;20426;-57
2022/10/05 13:03:01;;;;;;;7.03;4.35;;;;;;;;;;5079221;28;20714;-57
2022/10/05 13:05:29;;;;;;;7.50;4.30;;;;;;;;;;5088977;28;20050;-57
2022/10/05 13:08:09;;;;;;;6.78;3.90;;;;;;;;;;5088880;28;20531;-58
2022/10/05 13:10:37;;;;;;;6.75;3.75;;;;;;;;;;5090891;28;20478;-58
2022/10/05 13:13:20;;;;;;;6.38;3.78;;;;;;;;;;5089291;28;20024;-58
2022/10/05 13:15:46;;;;;;;6.00;3.72;;;;;;;;;;5093757;28;20221;-56
2022/10/05 13:18:20;;;;;;;5.60;3.97;;;;;;;;;;5096633;28;20015;-56
2022/10/05 13:20:51;;;;;;;5.65;3.70;;;;;;;;;;5094625;28;20023;-56
2022/10/05 13:23:23;;;;;;;5.50;3.75;;;;;;;;;;5089534;28;20051;-56
2022/10/05 13:25:52;;;;;;;5.75;3.80;;;;;;;;;;5087640;28;20036;-56
2022/10/05 13:28:18;;;;;;;5.75;3.85;;;;;;;;;;5078999;28;20016;-56
2022/10/05 13:30:49;;;;;;;5.63;3.95;;;;;;;;;;5083561;28;20837;-56
2022/10/05 13:33:16;;;;;;;6.65;4.00;;;;;;;;;;5094305;28;20393;-56
2022/10/05 13:35:49;;;;;;;5.70;3.72;;;;;;;;;;5087547;28;20020;-56
2022/10/05 13:38:14;;;;;;;7.43;4.18;;;;;;;;;;5092201;28;20028;-56
2022/10/05 13:40:45;;;;;;;7.07;3.70;;;;;;;;;;5083767;28;20027;-56
2022/10/05 13:43:13;;;;;;;7.70;3.90;;;;;;;;;;5089617;28;20036;-55
2022/10/05 13:45:49;;;;;;;5.47;3.60;;;;;;;;;;5092512;28;20040;-57
2022/10/05 13:48:21;;;;;;;5.35;3.70;;;;;;;;;;5092506;28;20032;-56
2022/10/05 13:50:57;;;;;;;5.45;3.72;;;;;;;;;;5091189;28;20047;-56
2022/10/05 13:53:25;;;;;;;6.00;3.80;;;;;;;;;;5085048;28;20050;-56
2022/10/05 13:55:50;;;;;;;5.10;3.45;;;;;;;;;;5099617;28;20028;-57
2022/10/05 13:58:24;;;;;;;5.10;3.38;;;;;;;;;;5092304;28;20032;-56
2022/10/05 14:00:54;;;;;;;5.82;3.58;;;;;;;;;;5088235;28;20024;-56
2022/10/05 14:03:37;;;;;;;7.50;3.40;;;;;;;;;;5090189;28;20445;-56
2022/10/05 14:06:29;;;;;;;4.78;3.00;;;;;;;;;;5092558;28;20060;-56
2022/10/05 14:08:56;;;;;;;6.53;3.65;;;;;;;;;;5084300;28;20462;-56
2022/10/05 14:11:34;;;;;;;8.00;3.20;;;;;;;;;;5085456;28;20594;-55
2022/10/05 14:14:02;;;;;;;7.05;3.67;;;;;;;;;;5097192;28;20073;-57
2022/10/05 14:16:29;;;;;;;7.57;3.53;;;;;;;;;;5092519;28;20015;-56
2022/10/05 14:19:08;;;;;;;5.40;3.50;;;;;;;;;;5084982;28;20019;-56
2022/10/05 14:21:46;;;;;;;6.53;3.38;;;;;;;;;;5079833;28;20031;-55
2022/10/05 14:24:17;;;;;;;5.75;3.30;;;;;;;;;;5088290;28;20035;-55
2022/10/05 14:26:42;;;;;;;8.23;3.35;;;;;;;;;;5088986;28;20022;-56
2022/10/05 14:29:16;;;;;;;5.78;3.22;;;;;;;;;;5092637;28;20512;-57
2022/10/05 14:31:51;;;;;;;6.15;3.55;;;;;;;;;;5088774;28;20024;-56
2022/10/05 14:34:35;;;;;;;6.40;3.10;;;;;;;;;;5086494;28;20028;-56
2022/10/05 14:37:02;;;;;;;9.52;3.38;;;;;;;;;;5089768;28;20049;-56
2022/10/05 14:39:27;;;;;;;5.97;3.58;;;;;;;;;;5085257;28;20024;-56
2022/10/05 14:41:53;;;;;;;5.20;3.20;;;;;;;;;;5089025;28;20016;-56
2022/10/05 14:44:30;;;;;;;5.53;3.45;;;;;;;;;;5092971;28;20038;-56
2022/10/05 14:47:02;;;;;;;7.13;3.45;;;;;;;;;;5089909;28;20028;-56
2022/10/05 14:49:28;;;;;;;5.95;3.50;;;;;;;;;;5089105;28;20061;-56
2022/10/05 14:51:53;;;;;;;11.55;4.57;;;;;;;;;;5092291;28;20269;-56
2022/10/05 14:54:21;;;;;;;7.32;3.30;;;;;;;;;;5086089;28;20019;-54
2022/10/05 14:56:47;;;;;;;5.95;3.45;;;;;;;;;;5086285;28;20031;-55
2022/10/05 14:59:15;;;;;;;8.13;3.78;;;;;;;;;;5098155;28;20015;-56
2022/10/05 15:01:44;;;;;;;5.85;3.55;;;;;;;;;;5081763;28;20492;-56
2022/10/05 15:04:16;;;;;;;8.98;3.80;;;;;;;;;;5085692;28;20052;-57